Fort Ross, California
Current Conditions -  °F | °C
As of 1:53 PM on Tuesday 21 Oct 2014 (Local Time) from KSTS Reporting Station
Scattered Clouds Scattered Clouds  
Wind Chill: 22°   Ceiling: Unl
Heat Index: 22°   Visibility: 10mi
Dew Point:   Wind: 3mph
Humidity: 35%   Direction: NA
Pressure: 30.03"   Gusts: NA
Location:  38.4962°N, 123.173°W
Report Text: KSTS 212053Z VRB03KT 10SM SCT250 22/06 A3003 RMK AO2 SLP163 T02220061 58022
Loading
Personal Weather Stations






























Interactive Weather Map
Tropical Storm Tracking
New forecast layout! Learn more

10-Day Weather Forecast

Advertisements
Track Severe Weather on mobile